createdAt,value
2022-08-19T00:00:13.766Z,19.04
2022-08-19T00:01:13.968Z,18.88
2022-08-19T00:02:14.028Z,18.88
2022-08-19T00:03:14.171Z,18.88
2022-08-19T00:04:14.305Z,18.8
2022-08-19T00:05:14.381Z,18.8
2022-08-19T00:06:14.527Z,18.8
2022-08-19T00:07:14.640Z,18.88
2022-08-19T00:08:14.736Z,18.88
2022-08-19T00:09:14.840Z,18.88
2022-08-19T00:10:14.945Z,18.88
2022-08-19T00:11:18.636Z,18.88
2022-08-19T00:12:15.248Z,18.88
2022-08-19T00:13:15.396Z,19.04
2022-08-19T00:14:15.548Z,19.04
2022-08-19T00:15:15.643Z,18.88
2022-08-19T00:16:15.800Z,18.88
2022-08-19T00:17:15.900Z,18.88
2022-08-19T00:18:16.002Z,18.88
2022-08-19T00:19:16.116Z,19.04
2022-08-19T00:20:16.254Z,19.12
2022-08-19T00:21:16.360Z,18.88
2022-08-19T00:22:16.468Z,19.04
2022-08-19T00:23:16.613Z,18.88
2022-08-19T00:24:16.717Z,18.88
2022-08-19T00:25:16.863Z,18.88
2022-08-19T00:26:16.968Z,18.88
2022-08-19T00:27:25.439Z,18.88
2022-08-19T00:28:17.171Z,18.8
2022-08-19T00:29:17.275Z,18.88
2022-08-19T00:30:17.382Z,19.04
2022-08-19T00:31:17.483Z,19.04
2022-08-19T00:32:17.635Z,18.88
2022-08-19T00:33:17.737Z,19.04
2022-08-19T00:34:17.886Z,18.88
2022-08-19T00:35:18.034Z,18.88
2022-08-19T00:36:18.137Z,18.8
2022-08-19T00:37:18.243Z,18.88
2022-08-19T00:38:18.342Z,18.8
2022-08-19T00:39:18.447Z,18.88
2022-08-19T00:40:18.547Z,18.88
2022-08-19T00:41:18.698Z,18.88
2022-08-19T00:42:18.800Z,18.8
2022-08-19T00:43:18.904Z,18.88
2022-08-19T00:44:19.011Z,18.72
2022-08-19T00:45:19.156Z,18.8
2022-08-19T00:46:19.259Z,18.72
2022-08-19T00:47:19.357Z,18.72
2022-08-19T00:48:19.511Z,18.72
2022-08-19T00:49:19.619Z,18.72
2022-08-19T00:50:19.715Z,18.72
2022-08-19T00:51:19.867Z,18.8
2022-08-19T00:52:19.973Z,18.8
2022-08-19T00:53:20.123Z,18.72
2022-08-19T00:54:20.229Z,18.72
2022-08-19T00:55:20.334Z,18.72
2022-08-19T00:56:20.426Z,18.72
2022-08-19T00:57:20.580Z,18.64
2022-08-19T00:58:20.680Z,18.72
2022-08-19T00:59:53.755Z,18.72
2022-08-19T01:00:20.894Z,18.72
2022-08-19T01:01:21.049Z,18.64
2022-08-19T01:02:21.097Z,18.72
2022-08-19T01:03:21.190Z,18.64
2022-08-19T01:04:21.344Z,18.72
2022-08-19T01:05:21.500Z,18.64
2022-08-19T01:06:21.597Z,18.64
2022-08-19T01:07:21.704Z,18.64
2022-08-19T01:08:21.803Z,18.64
2022-08-19T01:09:21.902Z,18.72
2022-08-19T01:10:22.059Z,18.64
2022-08-19T01:11:22.209Z,18.64
2022-08-19T01:12:22.315Z,18.64
2022-08-19T01:13:22.416Z,18.72
2022-08-19T01:14:22.570Z,18.64
2022-08-19T01:15:22.717Z,18.64
2022-08-19T01:16:22.825Z,18.64
2022-08-19T01:17:22.972Z,18.64
2022-08-19T01:18:23.131Z,18.64
2022-08-19T01:19:23.515Z,18.64
2022-08-19T01:20:23.426Z,18.64
2022-08-19T01:21:23.525Z,18.8
2022-08-19T01:22:28.935Z,18.72
2022-08-19T01:23:23.783Z,18.72
2022-08-19T01:24:23.887Z,18.64
2022-08-19T01:25:25.042Z,18.64
2022-08-19T01:26:24.188Z,18.64
2022-08-19T01:27:24.285Z,18.64
2022-08-19T01:28:34.345Z,18.64
2022-08-19T01:29:24.544Z,18.72
2022-08-19T01:30:24.670Z,18.72
2022-08-19T01:31:26.648Z,18.88
2022-08-19T01:32:33.261Z,18.8
2022-08-19T01:33:25.099Z,18.8
2022-08-19T01:34:25.201Z,18.72
2022-08-19T01:35:25.360Z,18.64
2022-08-19T01:36:25.454Z,18.64
2022-08-19T01:37:27.295Z,18.72
2022-08-19T01:38:25.660Z,18.64
2022-08-19T01:39:25.762Z,18.64
2022-08-19T01:40:25.868Z,18.64
2022-08-19T01:41:25.968Z,18.64
2022-08-19T01:42:30.393Z,18.64
2022-08-19T01:43:26.175Z,18.72
2022-08-19T01:44:26.328Z,18.64
2022-08-19T01:45:26.475Z,18.64
2022-08-19T01:46:26.611Z,18.64
2022-08-19T01:47:26.678Z,18.64
2022-08-19T01:48:26.830Z,18.64
2022-08-19T01:49:26.984Z,18.64
2022-08-19T01:50:27.140Z,18.64
2022-08-19T01:51:27.239Z,18.64
2022-08-19T01:52:27.339Z,18.72
2022-08-19T01:53:30.575Z,18.72
2022-08-19T01:54:28.122Z,18.72
2022-08-19T01:55:27.647Z,18.8
2022-08-19T01:56:27.749Z,18.72
2022-08-19T01:57:27.929Z,18.72
2022-08-19T01:58:28.001Z,18.64
2022-08-19T01:59:28.156Z,18.64
2022-08-19T02:00:28.254Z,18.72
2022-08-19T02:01:28.621Z,18.88
2022-08-19T02:02:28.459Z,18.72
2022-08-19T02:03:28.563Z,18.72
2022-08-19T02:04:28.664Z,18.72
2022-08-19T02:05:28.765Z,18.72
2022-08-19T02:06:28.903Z,18.72
2022-08-19T02:07:29.019Z,18.64
2022-08-19T02:08:29.120Z,18.72
2022-08-19T02:09:29.218Z,18.64
2022-08-19T02:10:29.322Z,18.64
2022-08-19T02:11:29.425Z,18.64
2022-08-19T02:12:29.531Z,18.64
2022-08-19T02:13:29.629Z,18.72
2022-08-19T02:14:29.781Z,18.64
2022-08-19T02:15:29.883Z,18.72
2022-08-19T02:16:29.988Z,18.64
2022-08-19T02:17:30.138Z,18.72
2022-08-19T02:18:30.238Z,18.64
2022-08-19T02:19:30.341Z,18.64
2022-08-19T02:20:30.496Z,18.64
2022-08-19T02:21:30.599Z,18.64
2022-08-19T02:22:30.747Z,18.64
2022-08-19T02:23:30.857Z,18.64
2022-08-19T02:24:30.958Z,18.72
2022-08-19T02:25:31.103Z,18.64
2022-08-19T02:26:31.265Z,18.72
2022-08-19T02:27:31.363Z,18.72
2022-08-19T02:28:31.510Z,18.64
2022-08-19T02:29:31.613Z,18.64
2022-08-19T02:30:31.714Z,18.64
2022-08-19T02:31:31.865Z,18.64
2022-08-19T02:32:31.967Z,18.64
2022-08-19T02:33:32.069Z,18.64
2022-08-19T02:34:32.218Z,18.64
2022-08-19T02:35:32.323Z,18.64
2022-08-19T02:36:32.477Z,18.72
2022-08-19T02:37:32.579Z,18.72
2022-08-19T02:38:32.682Z,18.72
2022-08-19T02:39:32.803Z,18.72
2022-08-19T02:40:32.930Z,18.72
2022-08-19T02:41:33.039Z,18.72
2022-08-19T02:42:33.134Z,18.72
2022-08-19T02:43:33.965Z,18.64
2022-08-19T02:44:33.338Z,18.72
2022-08-19T02:45:33.441Z,18.64
2022-08-19T02:46:33.813Z,18.64
2022-08-19T02:47:33.888Z,18.72
2022-08-19T02:48:33.773Z,18.72
2022-08-19T02:49:34.626Z,18.72
2022-08-19T02:50:34.035Z,18.72
2022-08-19T02:51:34.156Z,18.72
2022-08-19T02:52:34.312Z,18.72
2022-08-19T02:53:34.457Z,18.72
2022-08-19T02:54:34.566Z,18.64
2022-08-19T02:55:45.760Z,18.64
2022-08-19T02:56:34.863Z,18.72
2022-08-19T02:57:34.974Z,18.72
2022-08-19T02:58:35.187Z,18.64
2022-08-19T02:59:35.350Z,18.64
2022-08-19T03:00:35.475Z,18.64
2022-08-19T03:01:35.620Z,18.64
2022-08-19T03:02:35.707Z,18.64
2022-08-19T03:03:35.829Z,18.64
2022-08-19T03:04:35.979Z,18.64
2022-08-19T03:05:46.899Z,18.64
2022-08-19T03:06:36.236Z,18.48
2022-08-19T03:07:36.384Z,18.64
2022-08-19T03:08:36.490Z,18.64
2022-08-19T03:09:36.641Z,18.64
2022-08-19T03:10:36.743Z,18.64
2022-08-19T03:11:36.899Z,18.64
2022-08-19T03:12:36.995Z,18.48
2022-08-19T03:13:37.108Z,18.64
2022-08-19T03:14:37.202Z,18.64
2022-08-19T03:15:37.362Z,18.64
2022-08-19T03:16:37.507Z,18.64
2022-08-19T03:17:37.658Z,18.64
2022-08-19T03:18:37.805Z,18.48
2022-08-19T03:19:37.910Z,18.64
2022-08-19T03:20:38.062Z,18.48
2022-08-19T03:21:38.215Z,18.64
2022-08-19T03:22:38.368Z,18.48
2022-08-19T03:23:38.468Z,18.48
2022-08-19T03:24:38.575Z,18.48
2022-08-19T03:25:38.726Z,18.48
2022-08-19T03:26:38.821Z,18.48
2022-08-19T03:27:38.928Z,18.48
2022-08-19T03:28:39.074Z,18.48
2022-08-19T03:29:43.075Z,18.48
2022-08-19T03:30:39.331Z,18.48
2022-08-19T03:31:42.345Z,18.48
2022-08-19T03:32:45.275Z,18.48
2022-08-19T03:33:39.686Z,18.48
2022-08-19T03:34:39.877Z,18.48
2022-08-19T03:35:39.947Z,18.48
2022-08-19T03:36:40.098Z,18.48
2022-08-19T03:37:40.247Z,18.48
2022-08-19T03:38:40.355Z,18.48
2022-08-19T03:39:40.471Z,18.64
2022-08-19T03:40:40.603Z,18.64
2022-08-19T03:41:45.245Z,18.48
2022-08-19T03:42:48.747Z,18.48
2022-08-19T03:43:40.912Z,18.48
2022-08-19T03:44:41.065Z,18.64
2022-08-19T03:45:41.213Z,18.48
2022-08-19T03:46:42.378Z,18.64
2022-08-19T03:47:41.415Z,18.64
2022-08-19T03:48:41.518Z,18.64
2022-08-19T03:49:41.619Z,18.48
2022-08-19T03:50:41.721Z,18.64
2022-08-19T03:51:41.826Z,18.48
2022-08-19T03:52:45.381Z,18.48
2022-08-19T03:53:42.076Z,18.64
2022-08-19T03:54:42.178Z,18.64
2022-08-19T03:55:42.332Z,18.48
2022-08-19T03:56:42.436Z,18.48
2022-08-19T03:57:42.581Z,18.48
2022-08-19T03:58:42.686Z,18.48
2022-08-19T03:59:42.789Z,18.64
2022-08-19T04:00:42.947Z,18.48
2022-08-19T04:01:43.103Z,18.48
2022-08-19T04:02:56.329Z,18.48
2022-08-19T04:03:43.491Z,18.48
2022-08-19T04:04:43.896Z,18.64
2022-08-19T04:05:43.511Z,18.48
2022-08-19T04:06:43.653Z,18.48
2022-08-19T04:07:43.804Z,18.48
2022-08-19T04:08:43.925Z,18.48
2022-08-19T04:09:44.021Z,18.48
2022-08-19T04:10:44.126Z,18.4
2022-08-19T04:11:44.902Z,18.48
2022-08-19T04:12:44.414Z,18.4
2022-08-19T04:13:44.516Z,18.48
2022-08-19T04:14:44.672Z,18.48
2022-08-19T04:15:44.771Z,18.48
2022-08-19T04:16:44.931Z,18.48
2022-08-19T04:17:45.025Z,18.4
2022-08-19T04:18:45.137Z,18.4
2022-08-19T04:19:45.231Z,18.4
2022-08-19T04:20:45.330Z,18.4
2022-08-19T04:21:45.433Z,18.32
2022-08-19T04:22:45.538Z,18.48
2022-08-19T04:23:45.896Z,18.64
2022-08-19T04:24:45.739Z,18.72
2022-08-19T04:25:45.842Z,18.64
2022-08-19T04:26:45.939Z,18.48
2022-08-19T04:27:46.045Z,18.48
2022-08-19T04:28:46.145Z,18.48
2022-08-19T04:29:46.306Z,18.48
2022-08-19T04:30:46.449Z,18.48
2022-08-19T04:31:46.551Z,18.4
2022-08-19T04:32:46.757Z,18.48
2022-08-19T04:33:46.808Z,18.48
2022-08-19T04:35:01.745Z,18.48
2022-08-19T04:35:47.010Z,18.64
2022-08-19T04:36:47.114Z,18.48
2022-08-19T04:37:47.265Z,18.48
2022-08-19T04:38:47.376Z,18.48
2022-08-19T04:39:47.544Z,18.4
2022-08-19T04:40:47.622Z,18.4
2022-08-19T04:41:47.724Z,18.4
2022-08-19T04:42:47.900Z,18.4
2022-08-19T04:43:47.976Z,18.32
2022-08-19T04:44:48.077Z,18.32
2022-08-19T04:45:48.183Z,18.32
2022-08-19T04:46:51.057Z,18.4
2022-08-19T04:47:52.423Z,18.32
2022-08-19T04:48:49.355Z,18.32
2022-08-19T04:49:48.690Z,18.32
2022-08-19T04:50:48.793Z,18.4
2022-08-19T04:51:48.893Z,18.32
2022-08-19T04:52:49.067Z,18.4
2022-08-19T04:53:49.149Z,18.4
2022-08-19T04:54:49.293Z,18.4
2022-08-19T04:55:49.401Z,18.4
2022-08-19T04:56:49.576Z,18.48
2022-08-19T04:57:49.606Z,18.4
2022-08-19T04:58:49.758Z,18.4
2022-08-19T04:59:49.864Z,18.4
2022-08-19T05:00:49.984Z,18.4
2022-08-19T05:01:50.066Z,18.4
2022-08-19T05:02:50.220Z,18.4
2022-08-19T05:03:50.315Z,18.48
2022-08-19T05:04:50.421Z,18.48
2022-08-19T05:05:50.519Z,18.48
2022-08-19T05:06:50.669Z,18.48
2022-08-19T05:07:50.822Z,18.48
2022-08-19T05:08:50.931Z,18.64
2022-08-19T05:09:56.683Z,18.48
2022-08-19T05:10:51.176Z,18.4
2022-08-19T05:11:51.283Z,18.48
2022-08-19T05:12:51.432Z,18.48
2022-08-19T05:13:51.532Z,18.4
2022-08-19T05:14:51.634Z,18.4
2022-08-19T05:15:51.737Z,18.4
2022-08-19T05:16:58.944Z,18.4
2022-08-19T05:17:51.942Z,18.48
2022-08-19T05:18:52.044Z,18.48
2022-08-19T05:19:52.201Z,18.48
2022-08-19T05:20:52.354Z,18.4
2022-08-19T05:21:52.509Z,18.4
2022-08-19T05:22:52.685Z,18.4
2022-08-19T05:23:52.711Z,18.4
2022-08-19T05:25:11.497Z,18.4
2022-08-19T05:25:53.012Z,18.4
2022-08-19T05:26:53.114Z,18.4
2022-08-19T05:27:53.215Z,18.4
2022-08-19T05:28:54.638Z,18.32
2022-08-19T05:29:53.523Z,18.32
2022-08-19T05:30:53.623Z,18.32
2022-08-19T05:31:53.725Z,18.4
2022-08-19T05:32:54.187Z,18.48
2022-08-19T05:33:53.926Z,18.48
2022-08-19T05:34:54.073Z,18.64
2022-08-19T05:35:54.187Z,18.64
2022-08-19T05:36:54.282Z,18.64
2022-08-19T05:37:54.984Z,18.72
2022-08-19T05:38:54.534Z,18.72
2022-08-19T05:39:54.726Z,18.64
2022-08-19T05:40:54.792Z,18.72
2022-08-19T05:41:54.946Z,18.64
2022-08-19T05:42:55.527Z,18.64
2022-08-19T05:43:55.198Z,18.72
2022-08-19T05:44:55.347Z,18.8
2022-08-19T05:45:55.498Z,18.8
2022-08-19T05:46:55.653Z,18.72
2022-08-19T05:47:55.806Z,18.8
2022-08-19T05:48:55.933Z,18.8
2022-08-19T05:49:56.005Z,18.8
2022-08-19T05:50:56.108Z,18.8
2022-08-19T05:51:56.211Z,18.8
2022-08-19T05:52:56.415Z,18.72
2022-08-19T05:53:56.467Z,18.8
2022-08-19T05:54:56.969Z,18.8
2022-08-19T05:55:56.724Z,18.72
2022-08-19T05:56:56.821Z,18.72
2022-08-19T05:57:56.921Z,18.8
2022-08-19T05:58:57.031Z,18.8
2022-08-19T05:59:57.962Z,18.8
2022-08-19T06:00:57.332Z,18.8
2022-08-19T06:01:57.435Z,18.8
2022-08-19T06:02:57.650Z,18.8
2022-08-19T06:03:57.737Z,18.72
2022-08-19T06:04:57.836Z,18.8
2022-08-19T06:05:57.892Z,18.72
2022-08-19T06:06:58.040Z,18.8
2022-08-19T06:07:58.144Z,18.8
2022-08-19T06:08:58.274Z,18.8
2022-08-19T06:09:59.631Z,18.72
2022-08-19T06:10:58.552Z,18.72
2022-08-19T06:11:58.710Z,18.88
2022-08-19T06:12:58.848Z,18.8
2022-08-19T06:13:59.893Z,18.88
2022-08-19T06:15:00.890Z,18.8
2022-08-19T06:15:59.258Z,18.8
2022-08-19T06:17:00.941Z,18.88
2022-08-19T06:17:59.517Z,18.88
2022-08-19T06:18:59.619Z,18.8
2022-08-19T06:20:00.013Z,18.8
2022-08-19T06:20:59.868Z,18.8
2022-08-19T06:21:59.971Z,19.04
2022-08-19T06:23:00.092Z,18.8
2022-08-19T06:24:00.225Z,18.8
2022-08-19T06:25:00.347Z,18.8
2022-08-19T06:26:00.440Z,18.8
2022-08-19T06:27:01.386Z,18.88
2022-08-19T06:28:15.282Z,18.8
2022-08-19T06:29:00.833Z,18.72
2022-08-19T06:30:00.934Z,18.72
2022-08-19T06:31:01.043Z,18.72
2022-08-19T06:32:01.148Z,18.72
2022-08-19T06:33:01.287Z,18.72
2022-08-19T06:34:01.393Z,18.72
2022-08-19T06:35:01.496Z,18.72
2022-08-19T06:36:01.597Z,18.72
2022-08-19T06:37:01.698Z,18.72
2022-08-19T06:38:01.802Z,18.8
2022-08-19T06:39:01.909Z,18.8
2022-08-19T06:40:02.158Z,18.8
2022-08-19T06:41:02.219Z,18.8
2022-08-19T06:42:02.362Z,18.8
2022-08-19T06:43:02.622Z,18.88
2022-08-19T06:44:02.564Z,18.88
2022-08-19T06:45:02.715Z,18.88
2022-08-19T06:46:02.820Z,18.8
2022-08-19T06:47:02.969Z,18.72
2022-08-19T06:48:03.235Z,18.72
2022-08-19T06:49:03.179Z,18.8
2022-08-19T06:50:03.473Z,18.72
2022-08-19T06:51:03.413Z,18.88
2022-08-19T06:52:03.481Z,18.8
2022-08-19T06:53:04.507Z,18.88
2022-08-19T06:54:03.784Z,18.88
2022-08-19T06:55:05.827Z,18.88
2022-08-19T06:56:04.088Z,18.8
2022-08-19T06:57:04.268Z,18.8
2022-08-19T06:58:04.391Z,18.8
2022-08-19T06:59:04.495Z,18.88
2022-08-19T07:00:04.650Z,19.04
2022-08-19T07:01:07.074Z,19.04
2022-08-19T07:02:04.898Z,19.12
2022-08-19T07:03:08.357Z,19.2
2022-08-19T07:04:05.201Z,19.28
2022-08-19T07:05:05.308Z,19.44
2022-08-19T07:06:07.233Z,19.28
2022-08-19T07:07:09.490Z,19.28
2022-08-19T07:08:05.714Z,19.44
2022-08-19T07:09:05.863Z,19.44
2022-08-19T07:10:07.675Z,19.52
2022-08-19T07:11:09.332Z,19.52
2022-08-19T07:12:07.011Z,19.44
2022-08-19T07:13:06.327Z,19.52
2022-08-19T07:14:06.425Z,19.44
2022-08-19T07:15:06.573Z,19.52
2022-08-19T07:16:06.777Z,19.6
2022-08-19T07:17:06.832Z,19.6
2022-08-19T07:18:06.991Z,19.44
2022-08-19T07:19:11.606Z,19.52
2022-08-19T07:20:09.543Z,19.44
2022-08-19T07:21:09.451Z,19.52
2022-08-19T07:22:07.549Z,19.52
2022-08-19T07:23:07.688Z,19.6
2022-08-19T07:24:07.792Z,19.44
2022-08-19T07:25:07.949Z,19.44
2022-08-19T07:26:08.101Z,19.28
2022-08-19T07:27:13.065Z,19.44
2022-08-19T07:28:08.305Z,19.44
2022-08-19T07:29:08.452Z,19.28
2022-08-19T07:30:11.790Z,19.28
2022-08-19T07:31:08.685Z,19.28
2022-08-19T07:32:11.550Z,19.44
2022-08-19T07:33:08.860Z,19.44
2022-08-19T07:34:08.985Z,19.28
2022-08-19T07:35:09.063Z,19.28
2022-08-19T07:36:09.217Z,19.28
2022-08-19T07:37:09.320Z,19.28
2022-08-19T07:38:09.415Z,19.2
2022-08-19T07:39:09.528Z,19.2
2022-08-19T07:40:09.669Z,19.12
2022-08-19T07:41:10.023Z,19.12
2022-08-19T07:42:09.929Z,19.12
2022-08-19T07:43:13.597Z,19.2
2022-08-19T07:44:10.139Z,19.28
2022-08-19T07:45:10.231Z,19.28
2022-08-19T07:47:47.285Z,19.2
2022-08-19T07:48:10.545Z,19.12
2022-08-19T07:49:10.640Z,19.04
2022-08-19T07:50:10.771Z,18.88
2022-08-19T07:51:10.901Z,18.8
2022-08-19T07:52:11.062Z,18.8
2022-08-19T07:53:11.198Z,18.8
2022-08-19T07:54:11.331Z,18.88
2022-08-19T07:55:40.802Z,18.72
2022-08-19T07:56:11.558Z,18.72
2022-08-19T07:57:11.660Z,18.72
2022-08-19T07:58:11.766Z,18.64
2022-08-19T07:59:11.910Z,18.72
2022-08-19T08:00:12.060Z,18.64
2022-08-19T08:01:12.223Z,18.64
2022-08-19T08:02:12.366Z,18.8
2022-08-19T08:03:12.521Z,18.88
2022-08-19T08:04:12.623Z,18.88
2022-08-19T08:05:12.729Z,18.8
2022-08-19T08:06:12.877Z,18.8
2022-08-19T08:07:12.981Z,18.88
2022-08-19T08:08:13.084Z,19.04
2022-08-19T08:09:13.307Z,19.12
2022-08-19T08:10:19.961Z,19.12
2022-08-19T08:11:15.452Z,18.88
2022-08-19T08:12:18.379Z,19.04
2022-08-19T08:13:13.902Z,18.88
2022-08-19T08:14:28.952Z,18.88
2022-08-19T08:15:13.991Z,19.04
2022-08-19T08:16:14.496Z,18.88
2022-08-19T08:17:14.248Z,18.88
2022-08-19T08:18:14.497Z,18.88
2022-08-19T08:19:14.767Z,18.88
2022-08-19T08:20:14.603Z,18.88
2022-08-19T08:21:14.708Z,18.88
2022-08-19T08:22:14.858Z,19.04
2022-08-19T08:23:14.956Z,19.04
2022-08-19T08:24:15.110Z,19.2
2022-08-19T08:25:15.209Z,19.12
2022-08-19T08:26:15.991Z,19.2
2022-08-19T08:27:15.524Z,19.2
2022-08-19T08:28:17.835Z,19.28
2022-08-19T08:29:15.822Z,19.2
2022-08-19T08:30:15.976Z,19.12
2022-08-19T08:31:16.144Z,19.12
2022-08-19T08:32:16.231Z,19.2
2022-08-19T08:34:16.482Z,19.2
2022-08-19T08:35:16.681Z,19.2
2022-08-19T08:36:16.786Z,19.2
2022-08-19T08:37:16.939Z,19.2
2022-08-19T08:38:17.041Z,19.2
2022-08-19T08:39:17.149Z,19.2
2022-08-19T08:40:17.342Z,19.2
2022-08-19T08:41:17.398Z,19.28
2022-08-19T08:42:17.649Z,19.12
2022-08-19T08:43:17.599Z,19.04
2022-08-19T08:44:20.049Z,19.04
2022-08-19T08:45:18.228Z,19.04
2022-08-19T08:46:31.218Z,19.04
2022-08-19T08:47:18.058Z,19.12
2022-08-19T08:48:22.165Z,19.12
2022-08-19T08:49:18.264Z,19.12
2022-08-19T08:50:18.413Z,19.12
2022-08-19T08:51:20.212Z,19.2
2022-08-19T08:52:18.663Z,19.2
2022-08-19T08:53:28.810Z,19.12
2022-08-19T08:54:18.899Z,19.12
2022-08-19T08:55:20.330Z,19.04
2022-08-19T08:56:19.135Z,18.88
2022-08-19T08:57:19.226Z,19.04
2022-08-19T08:58:19.384Z,19.04
2022-08-19T08:59:19.486Z,18.88
2022-08-19T09:00:19.629Z,18.88
2022-08-19T09:01:19.764Z,18.88
2022-08-19T09:02:19.885Z,18.8
2022-08-19T09:03:20.037Z,18.8
2022-08-19T09:04:20.138Z,18.8
2022-08-19T09:05:22.127Z,19.12
2022-08-19T09:06:20.390Z,19.04
2022-08-19T09:07:34.560Z,18.88
2022-08-19T09:08:20.597Z,18.88
2022-08-19T09:09:20.709Z,18.88
2022-08-19T09:10:20.852Z,18.88
2022-08-19T09:11:42.348Z,19.04
2022-08-19T09:12:26.836Z,19.12
2022-08-19T09:13:21.154Z,19.12
2022-08-19T09:14:47.199Z,19.12
2022-08-19T09:15:21.409Z,19.12
2022-08-19T09:16:21.511Z,19.2
2022-08-19T09:17:21.666Z,19.28
2022-08-19T09:18:21.829Z,19.28
2022-08-19T09:19:22.460Z,19.28
2022-08-19T09:20:22.022Z,19.44
2022-08-19T09:21:25.402Z,19.44
2022-08-19T09:22:22.908Z,19.52
2022-08-19T09:23:26.855Z,19.6
2022-08-19T09:24:22.477Z,19.6
2022-08-19T09:25:24.847Z,20
2022-08-19T09:26:22.786Z,20
2022-08-19T09:27:22.880Z,19.92
2022-08-19T09:28:25.489Z,20
2022-08-19T09:29:23.134Z,20
2022-08-19T09:30:23.245Z,20
2022-08-19T09:31:23.344Z,20.08
2022-08-19T09:32:26.508Z,20.24
2022-08-19T09:33:23.591Z,20
2022-08-19T09:34:23.695Z,20
2022-08-19T09:35:23.800Z,20.08
2022-08-19T09:36:24.343Z,20.08
2022-08-19T09:37:24.054Z,20.08
2022-08-19T09:38:24.152Z,20.24
2022-08-19T09:39:24.308Z,20.4
2022-08-19T09:40:24.845Z,20.4
2022-08-19T09:41:24.515Z,20.32
2022-08-19T09:42:30.205Z,20.24
2022-08-19T09:43:31.094Z,20.08
2022-08-19T09:44:24.872Z,20.24
2022-08-19T09:45:24.970Z,20.4
2022-08-19T09:46:25.123Z,20.4
2022-08-19T09:47:25.229Z,20.48
2022-08-19T09:48:25.380Z,20.32
2022-08-19T09:49:25.478Z,20.48
2022-08-19T09:50:25.629Z,20.72
2022-08-19T09:51:25.781Z,20.8
2022-08-19T09:52:25.881Z,21.12
2022-08-19T09:53:26.030Z,21.28
2022-08-19T09:54:26.141Z,21.2
2022-08-19T09:55:31.393Z,21.28
2022-08-19T09:56:26.416Z,20.88
2022-08-19T09:57:26.559Z,20.88
2022-08-19T09:58:26.864Z,21.04
2022-08-19T09:59:26.801Z,20.72
2022-08-19T10:00:26.902Z,20.64
2022-08-19T10:01:27.022Z,20.4
2022-08-19T10:02:29.023Z,20.48
2022-08-19T10:03:29.838Z,20.48
2022-08-19T10:04:27.358Z,20.64
2022-08-19T10:05:27.466Z,20.48
2022-08-19T10:06:33.627Z,20.64
2022-08-19T10:07:28.775Z,20.8
2022-08-19T10:08:27.868Z,20.8
2022-08-19T10:09:34.228Z,20.88
2022-08-19T10:10:28.080Z,20.88
2022-08-19T10:11:36.341Z,21.12
2022-08-19T10:12:28.372Z,21.12
2022-08-19T10:13:28.523Z,21.2
2022-08-19T10:14:28.624Z,21.2
2022-08-19T10:15:29.526Z,21.2
2022-08-19T10:16:29.245Z,21.52
2022-08-19T10:17:31.778Z,21.2
2022-08-19T10:18:29.082Z,21.04
2022-08-19T10:19:29.263Z,21.12
2022-08-19T10:20:29.340Z,21.04
2022-08-19T10:21:29.491Z,21.28
2022-08-19T10:22:29.645Z,21.92
2022-08-19T10:23:29.748Z,22.08
2022-08-19T10:24:29.841Z,22.8
2022-08-19T10:25:29.996Z,23.12
2022-08-19T10:26:30.099Z,23.12
2022-08-19T10:27:32.100Z,23.2
2022-08-19T10:28:30.301Z,23.2
2022-08-19T10:29:32.410Z,23.28
2022-08-19T10:30:30.558Z,23.44
2022-08-19T10:32:00.176Z,23.2
2022-08-19T10:32:33.909Z,23.6
2022-08-19T10:33:38.284Z,23.92
2022-08-19T10:34:31.064Z,23.28
2022-08-19T10:35:31.163Z,23.2
2022-08-19T10:36:31.315Z,23.04
2022-08-19T10:37:31.504Z,22.88
2022-08-19T10:38:32.519Z,22.64
2022-08-19T10:39:31.710Z,22.4
2022-08-19T10:40:31.869Z,22.24
2022-08-19T10:41:31.884Z,22.08
2022-08-19T10:42:31.981Z,22.32
2022-08-19T10:43:32.081Z,22
2022-08-19T10:44:32.776Z,21.92
2022-08-19T10:45:32.388Z,21.52
2022-08-19T10:46:32.492Z,21.44
2022-08-19T10:47:32.590Z,21.52
2022-08-19T10:48:32.694Z,21.44
2022-08-19T10:49:32.818Z,21.28
2022-08-19T10:50:32.898Z,21.28
2022-08-19T10:51:32.999Z,21.2
2022-08-19T10:52:33.103Z,21.04
2022-08-19T10:53:33.211Z,20.8
2022-08-19T10:54:33.484Z,20.8
2022-08-19T10:55:33.420Z,20.8
2022-08-19T10:56:33.510Z,21.04
2022-08-19T10:57:46.243Z,21.2
2022-08-19T10:58:33.762Z,20.88
2022-08-19T10:59:35.915Z,21.04
2022-08-19T11:00:33.970Z,21.04
2022-08-19T11:01:34.269Z,21.04
2022-08-19T11:02:34.224Z,21.2
2022-08-19T11:03:34.335Z,21.12
2022-08-19T11:04:34.428Z,21.12
2022-08-19T11:05:39.830Z,21.2
2022-08-19T11:06:34.675Z,21.12
2022-08-19T11:07:34.829Z,21.04
2022-08-19T11:08:34.931Z,21.04
2022-08-19T11:09:35.083Z,20.88
2022-08-19T11:10:35.269Z,20.72
2022-08-19T11:11:35.339Z,20.8
2022-08-19T11:12:35.497Z,20.8
2022-08-19T11:13:35.641Z,20.48
2022-08-19T11:14:35.747Z,20.4
2022-08-19T11:15:35.846Z,20.4
2022-08-19T11:16:35.948Z,20.4
2022-08-19T11:17:36.050Z,20.4
2022-08-19T11:18:36.150Z,20.4
2022-08-19T11:19:36.307Z,20.4
2022-08-19T11:20:36.405Z,20.48
2022-08-19T11:21:36.503Z,20.4
2022-08-19T11:22:39.127Z,20.64
2022-08-19T11:23:36.711Z,20.72
2022-08-19T11:24:36.826Z,20.88
2022-08-19T11:25:36.963Z,20.72
2022-08-19T11:26:37.074Z,20.8
2022-08-19T11:27:37.220Z,20.8
2022-08-19T11:28:37.323Z,20.72
2022-08-19T11:29:37.422Z,20.64
2022-08-19T11:30:37.523Z,20.72
2022-08-19T11:31:37.643Z,20.72
2022-08-19T11:32:37.775Z,20.32
2022-08-19T11:33:37.881Z,20.08
2022-08-19T11:34:37.982Z,20.08
2022-08-19T11:35:38.133Z,20
2022-08-19T11:36:38.238Z,20
2022-08-19T11:37:38.338Z,20
2022-08-19T11:38:38.449Z,19.92
2022-08-19T11:39:38.565Z,20
2022-08-19T11:40:38.646Z,19.92
2022-08-19T11:41:38.745Z,19.68
2022-08-19T11:42:38.898Z,19.76
2022-08-19T11:43:38.998Z,19.76
2022-08-19T11:44:39.151Z,19.68
2022-08-19T11:45:39.254Z,19.68
2022-08-19T11:46:39.423Z,19.52
2022-08-19T11:47:39.462Z,19.52
2022-08-19T11:48:39.609Z,19.52
2022-08-19T11:49:39.711Z,19.52
2022-08-19T11:50:39.869Z,19.44
2022-08-19T11:51:39.969Z,19.28
2022-08-19T11:52:40.116Z,19.12
2022-08-19T11:53:40.268Z,19.12
2022-08-19T11:54:40.424Z,19.2
2022-08-19T11:55:43.271Z,19.2
2022-08-19T11:56:40.727Z,19.12
2022-08-19T11:57:40.874Z,19.2
2022-08-19T11:58:40.981Z,19.44
2022-08-19T11:59:41.080Z,19.28
2022-08-19T12:00:41.186Z,19.28
2022-08-19T12:01:41.286Z,19.28
2022-08-19T12:02:41.388Z,19.28
2022-08-19T12:03:41.537Z,19.44
2022-08-19T12:04:41.595Z,19.44
2022-08-19T12:05:41.745Z,19.28
2022-08-19T12:06:41.880Z,19.28
2022-08-19T12:07:42.001Z,19.2
2022-08-19T12:08:42.150Z,19.44
2022-08-19T12:09:42.784Z,19.52
2022-08-19T12:10:42.406Z,19.52
2022-08-19T12:11:42.557Z,19.2
2022-08-19T12:12:42.660Z,19.2
2022-08-19T12:13:42.766Z,19.12
2022-08-19T12:14:42.864Z,19.04
2022-08-19T12:15:43.009Z,18.88
2022-08-19T12:16:46.594Z,18.88
2022-08-19T12:17:43.236Z,18.88
2022-08-19T12:18:43.326Z,18.88
2022-08-19T12:19:43.419Z,18.88
2022-08-19T12:20:43.521Z,19.04
2022-08-19T12:21:43.677Z,19.12
2022-08-19T12:22:43.777Z,19.04
2022-08-19T12:23:43.880Z,19.12
2022-08-19T12:24:43.981Z,19.04
2022-08-19T12:25:44.078Z,19.04
2022-08-19T12:26:52.718Z,18.88
2022-08-19T12:27:57.206Z,18.88
2022-08-19T12:28:44.488Z,18.88
2022-08-19T12:29:44.597Z,19.2
2022-08-19T12:30:44.693Z,19.2
2022-08-19T12:31:44.795Z,19.04
2022-08-19T12:32:44.949Z,19.12
2022-08-19T12:33:45.051Z,19.04
2022-08-19T12:34:45.155Z,19.12
2022-08-19T12:35:45.813Z,19.12
2022-08-19T12:36:45.411Z,19.12
2022-08-19T12:37:45.555Z,19.12
2022-08-19T12:38:45.711Z,19.2
2022-08-19T12:39:45.878Z,19.2
2022-08-19T12:40:45.916Z,19.28
2022-08-19T12:41:54.391Z,19.44
2022-08-19T12:42:46.169Z,19.28
2022-08-19T12:43:46.274Z,19.52
2022-08-19T12:44:46.426Z,19.6
2022-08-19T12:45:47.100Z,19.52
2022-08-19T12:46:46.700Z,19.52
2022-08-19T12:47:46.776Z,19.2
2022-08-19T12:48:46.929Z,19.2
2022-08-19T12:49:52.974Z,19.2
2022-08-19T12:50:47.132Z,19.12
2022-08-19T12:51:47.283Z,19.04
2022-08-19T12:52:47.392Z,19.04
2022-08-19T12:53:47.487Z,18.88
2022-08-19T12:54:47.601Z,18.88
2022-08-19T12:55:47.743Z,18.8
2022-08-19T12:56:47.843Z,18.72
2022-08-19T12:57:47.993Z,18.8
2022-08-19T12:58:48.740Z,18.88
2022-08-19T12:59:48.151Z,19.04
2022-08-19T13:00:48.338Z,18.88
2022-08-19T13:01:48.405Z,18.8
2022-08-19T13:02:48.505Z,18.88